Time,TemperatureF,DewpointF,PressureIn,WindDirection,WindDirectionDegrees,WindSpeedMPH,WindSpeedGustMPH,Humidity,HourlyPrecipIn,Conditions,Clouds,dailyrainin,SoftwareType,DateUTC
2013-05-01 00:10:00,-999.0,-99.9,30.35,North,-999,-999.0,-999.0,-999,0.00,,,0.00,weatherlink.com 1.10,2013-05-01 04:10:00,
2013-05-01 00:25:00,-999.0,-99.9,30.35,North,-999,-999.0,-999.0,-999,0.00,,,0.00,weatherlink.com 1.10,2013-05-01 04:25:00,
2013-05-01 00:40:00,-999.0,-99.9,30.35,North,-999,-999.0,-999.0,-999,0.00,,,0.00,weatherlink.com 1.10,2013-05-01 04:40:00,
2013-05-01 00:56:00,-999.0,-99.9,30.36,North,-999,-999.0,-999.0,-999,0.00,,,0.00,weatherlink.com 1.10,2013-05-01 04:56:00,
2013-05-01 01:11:00,-999.0,-99.9,30.36,North,-999,-999.0,-999.0,-999,0.00,,,0.00,weatherlink.com 1.10,2013-05-01 05:11:00,
2013-05-01 01:27:00,-999.0,-99.9,30.37,North,-999,-999.0,-999.0,-999,0.00,,,0.00,weatherlink.com 1.10,2013-05-01 05:27:00,
2013-05-01 01:43:00,-999.0,-99.9,30.36,North,-999,-999.0,-999.0,-999,0.00,,,0.00,weatherlink.com 1.10,2013-05-01 05:43:00,
2013-05-01 01:58:00,-999.0,-99.9,30.36,North,-999,-999.0,-999.0,-999,0.00,,,0.00,weatherlink.com 1.10,2013-05-01 05:58:00,
2013-05-01 02:14:00,-999.0,-99.9,30.36,North,-999,-999.0,-999.0,-999,0.00,,,0.00,weatherlink.com 1.10,2013-05-01 06:14:00,
2013-05-01 02:28:00,-999.0,-99.9,30.36,North,-999,-999.0,-999.0,-999,0.00,,,0.00,weatherlink.com 1.10,2013-05-01 06:28:00,
2013-05-01 02:44:00,-999.0,-99.9,30.37,North,-999,-999.0,-999.0,-999,0.00,,,0.00,weatherlink.com 1.10,2013-05-01 06:44:00,
2013-05-01 02:59:00,-999.0,-99.9,30.37,North,-999,-999.0,-999.0,-999,0.00,,,0.00,weatherlink.com 1.10,2013-05-01 06:59:00,
2013-05-01 03:15:00,-999.0,-99.9,30.37,North,-999,-999.0,-999.0,-999,0.00,,,0.00,weatherlink.com 1.10,2013-05-01 07:15:00,
2013-05-01 03:31:00,-999.0,-99.9,30.38,North,-999,-999.0,-999.0,-999,0.00,,,0.00,weatherlink.com 1.10,2013-05-01 07:31:00,
2013-05-01 03:45:00,-999.0,-99.9,30.38,North,-999,-999.0,-999.0,-999,0.00,,,0.00,weatherlink.com 1.10,2013-05-01 07:45:00,
2013-05-01 04:00:00,-999.0,-99.9,30.38,North,-999,-999.0,-999.0,-999,0.00,,,0.00,weatherlink.com 1.10,2013-05-01 08:00:00,
2013-05-01 04:17:00,-999.0,-99.9,30.39,North,-999,-999.0,-999.0,-999,0.00,,,0.00,weatherlink.com 1.10,2013-05-01 08:17:00,
2013-05-01 04:32:00,-999.0,-99.9,30.39,North,-999,-999.0,-999.0,-999,0.00,,,0.00,weatherlink.com 1.10,2013-05-01 08:32:00,
2013-05-01 04:47:00,-999.0,-99.9,30.39,North,-999,-999.0,-999.0,-999,0.00,,,0.00,weatherlink.com 1.10,2013-05-01 08:47:00,
2013-05-01 05:02:00,-999.0,-99.9,30.39,North,-999,-999.0,-999.0,-999,0.00,,,0.00,weatherlink.com 1.10,2013-05-01 09:02:00,
2013-05-01 05:19:00,-999.0,-99.9,30.39,North,-999,-999.0,-999.0,-999,0.00,,,0.00,weatherlink.com 1.10,2013-05-01 09:19:00,
2013-05-01 05:33:00,-999.0,-99.9,30.40,North,-999,-999.0,-999.0,-999,0.00,,,0.00,weatherlink.com 1.10,2013-05-01 09:33:00,
2013-05-01 05:49:00,-999.0,-99.9,30.40,North,-999,-999.0,-999.0,-999,0.00,,,0.00,weatherlink.com 1.10,2013-05-01 09:49:00,
2013-05-01 06:04:00,-999.0,-99.9,30.41,North,-999,-999.0,-999.0,-999,0.00,,,0.00,weatherlink.com 1.10,2013-05-01 10:04:00,
2013-05-01 06:19:00,-999.0,-99.9,30.42,North,-999,-999.0,-999.0,-999,0.00,,,0.00,weatherlink.com 1.10,2013-05-01 10:19:00,
2013-05-01 06:35:00,-999.0,-99.9,30.43,North,-999,-999.0,-999.0,-999,0.00,,,0.00,weatherlink.com 1.10,2013-05-01 10:35:00,
2013-05-01 06:50:00,-999.0,-99.9,30.43,North,-999,-999.0,-999.0,-999,0.00,,,0.00,weatherlink.com 1.10,2013-05-01 10:50:00,
2013-05-01 12:26:00,69.0,30.0,30.44,SSE,165,2.0,11.0,23,0.00,,,0.00,weatherlink.com 1.10,2013-05-01 16:26:00,
2013-05-01 12:38:00,70.7,33.0,30.44,ENE,77,2.0,11.0,25,0.00,,,0.00,weatherlink.com 1.10,2013-05-01 16:38:00,
2013-05-01 12:53:00,72.2,31.0,30.44,SE,125,6.0,7.0,22,0.00,,,0.00,weatherlink.com 1.10,2013-05-01 16:53:00,
2013-05-01 13:08:00,70.9,31.0,30.44,SE,142,2.0,7.0,23,0.00,,,0.00,weatherlink.com 1.10,2013-05-01 17:08:00,
2013-05-01 13:23:00,70.8,29.0,30.43,SE,138,2.0,11.0,21,0.00,,,0.00,weatherlink.com 1.10,2013-05-01 17:23:00,
2013-05-01 13:34:00,-999.0,-99.9,0.00,North,-999,-999.0,-999.0,-999,0.00,,,0.00,weatherlink.com 1.10,2013-05-01 17:34:00,
2013-05-01 13:50:00,70.5,36.0,30.43,East,92,2.0,11.0,28,0.00,,,0.00,weatherlink.com 1.10,2013-05-01 17:50:00,
2013-05-01 14:05:00,72.2,41.0,30.43,SE,144,5.0,7.0,32,0.00,,,0.00,weatherlink.com 1.10,2013-05-01 18:05:00,
2013-05-01 14:22:00,72.1,38.0,30.43,SSW,208,1.0,6.0,29,0.00,,,0.00,weatherlink.com 1.10,2013-05-01 18:22:00,
2013-05-01 14:37:00,71.0,38.0,30.43,WSW,245,0.0,9.0,30,0.00,,,0.00,weatherlink.com 1.10,2013-05-01 18:37:00,
2013-05-01 14:52:00,70.9,38.0,30.43,South,186,4.0,10.0,30,0.00,,,0.00,weatherlink.com 1.10,2013-05-01 18:52:00,
2013-05-01 15:07:00,69.5,38.0,30.42,South,180,7.0,7.0,32,0.00,,,0.00,weatherlink.com 1.10,2013-05-01 19:07:00,
2013-05-01 15:22:00,70.4,39.0,30.42,SE,140,5.0,7.0,32,0.00,,,0.00,weatherlink.com 1.10,2013-05-01 19:22:00,
2013-05-01 15:38:00,69.6,39.0,30.42,ESE,119,5.0,8.0,33,0.00,,,0.00,weatherlink.com 1.10,2013-05-01 19:38:00,
2013-05-01 15:54:00,69.7,38.0,30.42,South,184,5.0,9.0,31,0.00,,,0.00,weatherlink.com 1.10,2013-05-01 19:54:00,
2013-05-01 16:08:00,69.9,40.0,30.42,SSW,207,5.0,7.0,34,0.00,,,0.00,weatherlink.com 1.10,2013-05-01 20:08:00,
2013-05-01 16:24:00,67.9,39.0,30.42,South,188,5.0,10.0,35,0.00,,,0.00,weatherlink.com 1.10,2013-05-01 20:24:00,
2013-05-01 16:38:00,66.9,40.0,30.42,SSE,148,3.0,7.0,37,0.00,,,0.00,weatherlink.com 1.10,2013-05-01 20:38:00,
2013-05-01 16:55:00,65.4,38.0,30.43,SSE,162,0.0,7.0,37,0.00,,,0.00,weatherlink.com 1.10,2013-05-01 20:55:00,
2013-05-01 17:10:00,65.2,40.0,30.43,SSE,155,2.0,7.0,40,0.00,,,0.00,weatherlink.com 1.10,2013-05-01 21:10:00,
2013-05-01 17:25:00,64.3,39.0,30.43,SSW,205,3.0,8.0,40,0.00,,,0.00,weatherlink.com 1.10,2013-05-01 21:25:00,
2013-05-01 17:40:00,63.7,39.0,30.43,SSE,157,3.0,7.0,41,0.00,,,0.00,weatherlink.com 1.10,2013-05-01 21:40:00,
2013-05-01 17:55:00,63.5,39.0,30.43,South,173,8.0,10.0,41,0.00,,,0.00,weatherlink.com 1.10,2013-05-01 21:55:00,
2013-05-01 18:12:00,63.0,39.0,30.43,SSE,167,2.0,7.0,42,0.00,,,0.00,weatherlink.com 1.10,2013-05-01 22:12:00,
2013-05-01 18:27:00,62.4,39.0,30.44,SE,144,1.0,4.0,42,0.00,,,0.00,weatherlink.com 1.10,2013-05-01 22:27:00,
2013-05-01 18:42:00,61.9,39.0,30.44,WSW,238,3.0,7.0,43,0.00,,,0.00,weatherlink.com 1.10,2013-05-01 22:42:00,
2013-05-01 18:57:00,61.1,37.0,30.45,SE,131,2.0,7.0,41,0.00,,,0.00,weatherlink.com 1.10,2013-05-01 22:57:00,
2013-05-01 19:13:00,60.3,37.0,30.45,SE,141,1.0,9.0,42,0.00,,,0.00,weatherlink.com 1.10,2013-05-01 23:13:00,
2013-05-01 19:28:00,59.3,36.0,30.45,SE,142,1.0,11.0,42,0.00,,,0.00,weatherlink.com 1.10,2013-05-01 23:28:00,
2013-05-01 19:44:00,58.3,36.0,30.45,ESE,121,3.0,4.0,44,0.00,,,0.00,weatherlink.com 1.10,2013-05-01 23:44:00,
2013-05-01 19:58:00,57.4,38.0,30.46,SSE,153,0.0,6.0,48,0.00,,,0.00,weatherlink.com 1.10,2013-05-01 23:58:00,
2013-05-01 20:15:00,56.5,38.0,30.46,SE,132,0.0,5.0,50,0.00,,,0.00,weatherlink.com 1.10,2013-05-02 00:15:00,
2013-05-01 20:30:00,55.8,39.0,30.47,SSE,161,1.0,3.0,53,0.00,,,0.00,weatherlink.com 1.10,2013-05-02 00:30:00,
2013-05-01 20:45:00,55.0,39.0,30.48,South,182,0.0,4.0,55,0.00,,,0.00,weatherlink.com 1.10,2013-05-02 00:45:00,
2013-05-01 21:00:00,54.4,38.0,30.48,SSE,166,1.0,6.0,54,0.00,,,0.00,weatherlink.com 1.10,2013-05-02 01:00:00,
2013-05-01 21:15:00,53.8,36.0,30.49,South,186,0.0,3.0,51,0.00,,,0.00,weatherlink.com 1.10,2013-05-02 01:15:00,
2013-05-01 21:32:00,53.1,36.0,30.49,SSE,148,2.0,3.0,52,0.00,,,0.00,weatherlink.com 1.10,2013-05-02 01:32:00,
2013-05-01 21:46:00,52.5,36.0,30.49,SSE,155,0.0,1.0,54,0.00,,,0.00,weatherlink.com 1.10,2013-05-02 01:46:00,
2013-05-01 22:01:00,51.5,37.0,30.49,SSE,155,0.0,0.0,57,0.00,,,0.00,weatherlink.com 1.10,2013-05-02 02:01:00,
2013-05-01 22:17:00,51.0,36.0,30.49,SSE,155,0.0,0.0,58,0.00,,,0.00,weatherlink.com 1.10,2013-05-02 02:17:00,
2013-05-01 22:33:00,50.3,37.0,30.49,SSE,155,0.0,0.0,61,0.00,,,0.00,weatherlink.com 1.10,2013-05-02 02:33:00,
2013-05-01 22:49:00,49.8,38.0,30.49,SSE,155,0.0,0.0,63,0.00,,,0.00,weatherlink.com 1.10,2013-05-02 02:49:00,
2013-05-01 23:04:00,49.2,38.0,30.49,SSE,155,0.0,0.0,65,0.00,,,0.00,weatherlink.com 1.10,2013-05-02 03:04:00,
2013-05-01 23:18:00,48.8,38.0,30.49,SSE,155,0.0,0.0,66,0.00,,,0.00,weatherlink.com 1.10,2013-05-02 03:18:00,
2013-05-01 23:33:00,48.1,38.0,30.49,SSE,155,0.0,0.0,69,0.00,,,0.00,weatherlink.com 1.10,2013-05-02 03:33:00,
2013-05-01 23:49:00,47.4,38.0,30.49,SSE,155,0.0,0.0,70,0.00,,,0.00,weatherlink.com 1.10,2013-05-02 03:49:00,